Time;durP1;ratioP1;P1;durP2;ratioP2;P2;SDS_P1;SDS_P2;PMS_P1;PMS_P2;Temp;Humidity;BMP_temperature;BMP_pressure;BME280_temperature;BME280_humidity;BME280_pressure;Samples;Min_cycle;Max_cycle;Signal;HPM_P1;HPM_P2
2023/12/27 00:01:32;;;;;;;16.92;6.00;;;6.30;99.90;;;;;;4923716;28;92928;-75
2023/12/27 00:03:58;;;;;;;13.68;6.45;;;6.30;99.90;;;;;;4946999;28;93812;-75
2023/12/27 00:06:23;;;;;;;14.90;7.22;;;6.30;99.90;;;;;;4950561;28;93604;-74
2023/12/27 00:08:49;;;;;;;21.95;7.35;;;6.30;99.90;;;;;;4946448;28;92841;-74
2023/12/27 00:11:18;;;;;;;16.60;6.43;;;6.20;99.90;;;;;;4944092;28;93393;-74
2023/12/27 00:13:43;;;;;;;20.63;7.15;;;6.10;99.90;;;;;;4943392;28;93310;-74
2023/12/27 00:16:10;;;;;;;16.08;6.38;;;6.10;99.90;;;;;;4948880;28;92902;-75
2023/12/27 00:18:35;;;;;;;15.40;5.97;;;6.10;99.90;;;;;;4925500;28;92687;-74
2023/12/27 00:21:01;;;;;;;16.83;6.05;;;6.00;99.90;;;;;;4949398;28;93273;-74
2023/12/27 00:23:29;;;;;;;14.77;6.35;;;6.00;99.90;;;;;;4945814;28;94906;-74
2023/12/27 00:25:57;;;;;;;17.88;7.60;;;6.00;99.90;;;;;;4926295;28;95558;-74
2023/12/27 00:28:23;;;;;;;16.80;6.57;;;6.00;99.90;;;;;;4946932;28;93325;-75
2023/12/27 00:30:51;;;;;;;17.50;6.60;;;6.00;99.90;;;;;;4947881;28;93124;-74
2023/12/27 00:33:17;;;;;;;18.95;6.07;;;6.00;99.90;;;;;;4949087;28;98787;-76
2023/12/27 00:35:42;;;;;;;20.50;7.32;;;6.00;99.90;;;;;;4927897;28;94831;-74
2023/12/27 00:38:08;;;;;;;19.83;7.25;;;6.00;99.90;;;;;;4946623;28;93200;-75
2023/12/27 00:40:34;;;;;;;21.80;6.75;;;6.00;99.90;;;;;;4948290;28;92572;-75
2023/12/27 00:42:59;;;;;;;16.40;6.45;;;6.00;99.90;;;;;;4947018;28;95780;-74
2023/12/27 00:45:25;;;;;;;17.33;6.95;;;6.00;99.90;;;;;;4946457;28;94179;-74
2023/12/27 00:47:51;;;;;;;19.23;7.45;;;6.00;99.90;;;;;;4950596;28;94144;-74
2023/12/27 00:50:17;;;;;;;17.60;6.43;;;6.00;99.90;;;;;;4930154;28;92711;-75
2023/12/27 00:52:43;;;;;;;18.00;5.90;;;6.00;99.90;;;;;;4923587;28;95131;-74
2023/12/27 00:55:09;;;;;;;14.30;6.35;;;6.00;99.90;;;;;;4942961;28;93418;-75
2023/12/27 00:57:35;;;;;;;17.58;6.38;;;6.00;99.90;;;;;;4928771;28;92664;-76
2023/12/27 01:00:00;;;;;;;17.55;6.28;;;6.00;99.90;;;;;;4946380;28;93364;-74
2023/12/27 01:02:26;;;;;;;14.25;6.25;;;5.90;99.90;;;;;;4924897;28;96204;-74
2023/12/27 01:04:53;;;;;;;14.65;6.15;;;5.90;99.90;;;;;;4948844;28;93734;-74
2023/12/27 01:07:21;;;;;;;13.30;6.53;;;6.00;99.90;;;;;;4931478;28;92790;-74
2023/12/27 01:09:47;;;;;;;14.40;5.68;;;6.00;99.90;;;;;;4949825;28;93071;-74
2023/12/27 01:12:13;;;;;;;15.00;6.20;;;6.00;99.90;;;;;;4948461;28;94408;-74
2023/12/27 01:14:38;;;;;;;15.18;6.10;;;6.00;99.90;;;;;;4944789;28;93847;-75
2023/12/27 01:17:04;;;;;;;22.08;6.45;;;6.10;99.90;;;;;;4947661;28;92845;-75
2023/12/27 01:19:30;;;;;;;19.02;5.85;;;6.10;99.90;;;;;;4944190;28;93337;-75
2023/12/27 01:21:57;;;;;;;15.55;5.78;;;6.20;99.90;;;;;;4926174;28;95126;-74
2023/12/27 01:24:23;;;;;;;17.15;6.18;;;6.20;99.90;;;;;;4947272;28;93439;-75
2023/12/27 01:26:49;;;;;;;16.65;5.65;;;6.30;99.90;;;;;;4929512;28;92713;-74
2023/12/27 01:29:14;;;;;;;17.08;6.55;;;6.40;99.90;;;;;;4944240;28;92535;-76
2023/12/27 01:31:40;;;;;;;15.25;5.93;;;6.50;99.90;;;;;;4942713;28;93805;-75
2023/12/27 01:34:06;;;;;;;18.67;6.00;;;6.50;99.90;;;;;;4937244;28;95942;-75
2023/12/27 01:36:31;;;;;;;19.52;6.35;;;6.60;99.90;;;;;;4941461;28;94323;-75
2023/12/27 01:38:57;;;;;;;19.52;6.53;;;6.70;99.90;;;;;;4945746;28;93143;-75
2023/12/27 01:41:23;;;;;;;15.27;5.70;;;6.70;99.90;;;;;;4928429;28;95612;-76
2023/12/27 01:43:48;;;;;;;16.05;6.43;;;6.80;99.90;;;;;;4945004;28;93495;-78
2023/12/27 01:46:14;;;;;;;14.82;6.03;;;6.80;99.90;;;;;;4943383;28;92742;-75
2023/12/27 01:48:41;;;;;;;15.15;5.85;;;6.90;99.90;;;;;;4948794;28;93686;-75
2023/12/27 01:51:07;;;;;;;14.77;6.15;;;6.90;99.90;;;;;;4948401;28;92947;-75
2023/12/27 01:53:34;;;;;;;18.02;6.63;;;7.00;99.90;;;;;;4950702;28;93600;-74
2023/12/27 01:56:01;;;;;;;16.20;6.47;;;7.00;99.90;;;;;;4948130;28;93192;-75
2023/12/27 01:58:27;;;;;;;12.38;5.95;;;7.00;99.90;;;;;;4953257;28;92550;-76
2023/12/27 02:00:56;;;;;;;15.00;7.13;;;7.00;99.90;;;;;;4944841;28;95031;-75
2023/12/27 02:05:59;;;;;;;17.10;6.43;;;7.10;99.90;;;;;;4943026;28;93076;-75
2023/12/27 02:08:26;;;;;;;15.82;6.13;;;7.10;99.90;;;;;;4945892;28;92615;-74
2023/12/27 02:10:51;;;;;;;15.82;6.35;;;7.20;99.90;;;;;;4926576;28;94870;-75
2023/12/27 02:13:17;;;;;;;16.77;5.97;;;7.20;99.90;;;;;;4927715;28;95601;-75
2023/12/27 02:15:43;;;;;;;14.13;6.38;;;7.30;99.90;;;;;;4931910;28;93481;-76
2023/12/27 02:18:10;;;;;;;19.38;6.35;;;7.30;99.90;;;;;;4950894;28;92059;-75
2023/12/27 02:20:39;;;;;;;15.63;6.45;;;7.40;99.90;;;;;;4951140;28;93460;-74
2023/12/27 02:23:07;;;;;;;20.85;5.72;;;7.40;99.90;;;;;;4946882;28;93514;-74
2023/12/27 02:25:33;;;;;;;17.15;5.40;;;7.40;99.90;;;;;;4947302;28;94138;-75
2023/12/27 02:27:59;;;;;;;17.58;6.30;;;7.50;99.90;;;;;;4928420;28;92956;-74
2023/12/27 02:30:25;;;;;;;17.58;5.25;;;7.50;99.90;;;;;;4930233;28;94835;-75
2023/12/27 02:32:51;;;;;;;13.52;5.18;;;7.60;99.90;;;;;;4928357;28;95330;-75
2023/12/27 02:35:17;;;;;;;17.73;5.18;;;7.60;99.90;;;;;;4951994;28;93016;-76
2023/12/27 02:37:43;;;;;;;18.48;5.55;;;7.70;99.90;;;;;;4926706;28;93696;-75
2023/12/27 02:40:12;;;;;;;16.63;5.88;;;7.70;99.90;;;;;;4931690;28;98723;-75
2023/12/27 02:42:39;;;;;;;22.52;5.53;;;7.80;99.90;;;;;;4949193;28;93425;-75
2023/12/27 02:45:06;;;;;;;24.15;5.65;;;7.80;99.90;;;;;;4947128;28;93451;-75
2023/12/27 02:47:35;;;;;;;16.42;5.43;;;7.90;99.90;;;;;;4950602;28;92875;-75
2023/12/27 02:50:00;;;;;;;14.77;4.93;;;7.90;99.90;;;;;;4947425;28;94555;-75
2023/12/27 02:52:26;;;;;;;12.20;5.85;;;7.90;99.90;;;;;;4951642;28;94498;-75
2023/12/27 02:54:52;;;;;;;22.23;6.05;;;8.00;99.90;;;;;;4947041;28;92619;-74
2023/12/27 02:57:18;;;;;;;17.80;5.65;;;8.00;99.90;;;;;;4946863;28;93346;-75
2023/12/27 02:59:43;;;;;;;13.07;5.30;;;8.00;99.90;;;;;;4943768;28;93841;-75
2023/12/27 03:02:09;;;;;;;21.45;5.13;;;8.00;99.90;;;;;;4927724;28;96106;-75
2023/12/27 03:04:35;;;;;;;17.50;5.78;;;8.10;99.90;;;;;;4929029;28;92612;-76
2023/12/27 03:07:00;;;;;;;26.90;7.38;;;8.20;99.90;;;;;;4949596;28;92246;-75
2023/12/27 03:09:26;;;;;;;20.48;5.53;;;8.20;99.90;;;;;;4946688;28;93320;-75
2023/12/27 03:11:52;;;;;;;15.35;5.00;;;8.30;99.90;;;;;;4949983;28;93698;-75
2023/12/27 03:14:18;;;;;;;14.02;4.88;;;8.30;99.90;;;;;;4950721;28;94549;-77
2023/12/27 03:16:43;;;;;;;17.67;5.20;;;8.40;99.90;;;;;;4949309;28;92536;-76
2023/12/27 03:19:09;;;;;;;16.10;4.70;;;8.40;99.90;;;;;;4948274;28;93271;-75
2023/12/27 03:21:34;;;;;;;20.00;5.63;;;8.50;99.90;;;;;;4952738;28;93469;-75
2023/12/27 03:24:00;;;;;;;15.65;4.57;;;8.50;99.90;;;;;;4945757;28;92208;-76
2023/12/27 03:26:26;;;;;;;23.30;5.50;;;8.60;99.90;;;;;;4950413;28;100854;-75
2023/12/27 03:28:51;;;;;;;18.52;5.45;;;8.60;99.90;;;;;;4947438;28;97036;-76
2023/12/27 03:31:17;;;;;;;13.55;4.57;;;8.60;99.90;;;;;;4928390;28;93839;-75
2023/12/27 03:33:43;;;;;;;12.48;4.63;;;8.70;99.90;;;;;;4932444;28;92670;-74
2023/12/27 03:36:08;;;;;;;23.65;5.28;;;8.70;99.90;;;;;;4934689;28;92829;-75
2023/12/27 03:38:34;;;;;;;16.00;4.93;;;8.80;99.90;;;;;;4946951;28;94325;-77
2023/12/27 03:40:59;;;;;;;15.00;4.93;;;8.80;99.90;;;;;;4928947;28;97044;-75
2023/12/27 03:43:25;;;;;;;19.05;4.55;;;8.80;99.90;;;;;;4925978;28;92517;-77
2023/12/27 03:45:54;;;;;;;17.98;5.05;;;8.80;99.90;;;;;;4933231;28;93092;-78
2023/12/27 03:48:20;;;;;;;16.23;4.70;;;8.80;99.90;;;;;;4932435;28;101144;-75
2023/12/27 03:50:46;;;;;;;14.70;5.68;;;8.80;99.90;;;;;;4944805;28;93140;-75
2023/12/27 03:53:12;;;;;;;17.52;4.63;;;8.90;99.90;;;;;;4947460;28;92668;-75
2023/12/27 03:55:37;;;;;;;15.30;4.75;;;8.90;99.90;;;;;;4948043;28;92445;-75
2023/12/27 03:58:03;;;;;;;13.82;4.82;;;9.00;99.90;;;;;;4947792;28;93147;-75
2023/12/27 04:00:29;;;;;;;20.55;5.20;;;9.00;99.90;;;;;;4951746;28;93459;-75
2023/12/27 04:02:55;;;;;;;22.00;5.18;;;9.00;99.90;;;;;;4946684;28;94520;-77
2023/12/27 04:05:20;;;;;;;24.95;5.13;;;9.10;99.90;;;;;;4943354;28;92541;-75
2023/12/27 04:07:46;;;;;;;14.85;4.88;;;9.10;99.90;;;;;;4926686;28;97116;-75
2023/12/27 04:10:12;;;;;;;20.00;4.90;;;9.10;99.90;;;;;;4928376;28;96327;-76
2023/12/27 04:12:37;;;;;;;13.70;4.65;;;9.20;99.90;;;;;;4944885;28;93105;-75
2023/12/27 04:15:04;;;;;;;16.65;4.75;;;9.20;99.90;;;;;;4946301;28;92932;-75
2023/12/27 04:17:30;;;;;;;15.38;4.43;;;9.20;99.90;;;;;;4946859;28;93875;-75
2023/12/27 04:19:55;;;;;;;19.85;4.82;;;9.30;99.90;;;;;;4932028;28;96937;-75
2023/12/27 04:22:21;;;;;;;15.18;4.82;;;9.30;99.90;;;;;;4928927;28;92826;-75
2023/12/27 04:24:47;;;;;;;11.63;4.78;;;9.40;99.90;;;;;;4945598;28;94162;-74
2023/12/27 04:27:12;;;;;;;16.20;4.90;;;9.40;99.90;;;;;;4948151;28;94037;-75
2023/12/27 04:29:38;;;;;;;14.05;4.95;;;9.40;99.90;;;;;;4948879;28;96433;-75
2023/12/27 04:32:04;;;;;;;10.95;4.38;;;9.50;99.90;;;;;;4945617;28;92590;-75
2023/12/27 04:34:30;;;;;;;15.07;4.07;;;9.50;99.90;;;;;;4942108;28;93181;-75
2023/12/27 04:36:55;;;;;;;10.77;4.13;;;9.50;99.90;;;;;;4926905;28;97642;-75
2023/12/27 04:39:21;;;;;;;15.88;4.30;;;9.50;99.90;;;;;;4942677;28;92948;-76
2023/12/27 04:41:47;;;;;;;10.75;4.65;;;9.50;99.90;;;;;;4948586;28;93178;-75
2023/12/27 04:44:12;;;;;;;10.68;3.95;;;9.50;99.90;;;;;;4945411;28;92951;-76
2023/12/27 04:46:38;;;;;;;14.70;4.80;;;9.50;99.90;;;;;;4942999;28;96152;-75
2023/12/27 04:49:04;;;;;;;12.10;4.57;;;9.50;99.90;;;;;;4925219;28;94496;-75
2023/12/27 04:51:30;;;;;;;11.27;3.88;;;9.50;99.90;;;;;;4930247;28;93779;-77
2023/12/27 04:53:56;;;;;;;15.73;4.43;;;9.60;99.90;;;;;;4928173;28;93010;-75
2023/12/27 04:56:22;;;;;;;13.75;4.22;;;9.60;99.90;;;;;;4944437;28;93169;-75
2023/12/27 04:58:47;;;;;;;8.27;4.10;;;9.70;99.90;;;;;;4947280;28;93899;-76
2023/12/27 05:01:16;;;;;;;7.18;4.32;;;9.70;99.90;;;;;;4944031;28;92759;-75
2023/12/27 05:03:44;;;;;;;13.50;4.68;;;9.80;99.90;;;;;;4930968;28;92436;-75
2023/12/27 05:06:11;;;;;;;13.85;4.43;;;9.80;99.90;;;;;;4945709;28;93308;-76
2023/12/27 05:08:41;;;;;;;10.10;3.70;;;9.80;99.90;;;;;;4927212;28;94777;-76
2023/12/27 05:11:17;;;;;;;14.95;4.60;;;9.80;99.90;;;;;;4943920;28;93191;-75
2023/12/27 05:13:42;;;;;;;11.95;4.18;;;9.90;99.90;;;;;;4946209;28;93622;-76
2023/12/27 05:16:15;;;;;;;13.65;4.15;;;9.90;99.90;;;;;;4945756;28;93846;-77
2023/12/27 05:18:42;;;;;;;12.85;4.05;;;9.90;99.90;;;;;;4946972;28;94566;-76
2023/12/27 05:21:11;;;;;;;13.32;4.45;;;9.90;99.90;;;;;;4931094;28;93352;-76
2023/12/27 05:23:38;;;;;;;12.70;5.40;;;9.90;99.90;;;;;;4927706;28;92982;-76
2023/12/27 05:26:05;;;;;;;12.93;4.45;;;9.90;99.90;;;;;;4930554;28;96296;-77
2023/12/27 05:28:31;;;;;;;10.15;3.92;;;9.90;99.90;;;;;;4944635;28;95093;-76
2023/12/27 05:30:57;;;;;;;8.20;4.20;;;9.90;99.90;;;;;;4945150;28;93024;-76
2023/12/27 05:33:25;;;;;;;9.18;5.00;;;9.90;99.90;;;;;;4927366;28;91951;-76
2023/12/27 05:35:52;;;;;;;11.68;3.90;;;10.00;99.90;;;;;;4944973;28;94109;-77
2023/12/27 05:38:17;;;;;;;10.60;4.07;;;10.00;99.90;;;;;;4948777;28;93409;-77
2023/12/27 05:40:43;;;;;;;7.97;4.22;;;9.90;99.90;;;;;;4947767;28;94271;-76
2023/12/27 05:43:09;;;;;;;13.23;4.35;;;10.00;99.90;;;;;;4932802;28;92460;-77
2023/12/27 05:45:34;;;;;;;15.25;4.72;;;9.90;99.90;;;;;;4949308;28;94140;-77
2023/12/27 05:48:00;;;;;;;9.63;4.25;;;9.80;99.90;;;;;;4952264;28;93226;-77
2023/12/27 05:50:26;;;;;;;7.45;3.97;;;9.90;99.90;;;;;;4948849;28;92548;-77
2023/12/27 05:52:51;;;;;;;5.78;3.75;;;9.80;99.90;;;;;;4933633;28;92975;-77
2023/12/27 05:55:17;;;;;;;6.75;3.25;;;9.90;99.90;;;;;;4952359;28;93292;-77
2023/12/27 05:57:43;;;;;;;8.93;3.33;;;9.90;99.90;;;;;;4954162;28;93674;-78
2023/12/27 06:00:09;;;;;;;7.80;3.33;;;9.90;99.90;;;;;;4950192;28;93047;-78
2023/12/27 06:02:34;;;;;;;4.65;2.63;;;10.00;99.90;;;;;;4953456;28;92884;-78
2023/12/27 06:05:00;;;;;;;11.23;2.97;;;10.00;99.90;;;;;;4930165;28;97560;-77
2023/12/27 06:07:26;;;;;;;6.13;3.60;;;10.20;99.90;;;;;;4952886;28;94293;-78
2023/12/27 06:09:52;;;;;;;5.75;2.88;;;10.20;99.90;;;;;;4934134;28;92743;-77
2023/12/27 06:12:18;;;;;;;5.95;3.03;;;10.20;99.90;;;;;;4949541;28;92603;-78
2023/12/27 06:14:44;;;;;;;6.13;2.60;;;10.20;99.90;;;;;;4950982;28;93608;-77
2023/12/27 06:17:10;;;;;;;3.50;2.10;;;10.30;99.90;;;;;;4947563;28;93002;-78
2023/12/27 06:19:36;;;;;;;5.28;1.85;;;10.30;99.90;;;;;;4934712;28;92794;-78
2023/12/27 06:22:03;;;;;;;4.50;1.73;;;10.30;99.90;;;;;;4952367;28;92643;-76
2023/12/27 06:24:29;;;;;;;3.17;1.95;;;10.30;99.90;;;;;;4950730;28;93306;-78
2023/12/27 06:26:54;;;;;;;2.13;1.40;;;10.30;99.90;;;;;;4948187;28;92920;-77
2023/12/27 06:29:20;;;;;;;3.10;1.70;;;10.40;99.90;;;;;;4948254;28;94164;-76
2023/12/27 06:31:46;;;;;;;2.72;1.63;;;10.50;99.90;;;;;;4945602;28;92632;-77
2023/12/27 06:34:11;;;;;;;7.03;1.55;;;10.50;99.90;;;;;;4949220;28;93802;-77
2023/12/27 06:36:39;;;;;;;3.75;1.63;;;10.40;99.90;;;;;;4932306;28;93275;-77
2023/12/27 06:39:08;;;;;;;2.42;1.27;;;10.40;99.90;;;;;;4933552;28;92546;-78
2023/12/27 06:41:33;;;;;;;4.35;1.60;;;10.50;99.90;;;;;;4951713;28;92805;-77
2023/12/27 06:44:02;;;;;;;4.68;1.77;;;10.40;99.90;;;;;;4952464;28;93861;-77
2023/12/27 06:46:28;;;;;;;3.03;1.48;;;10.50;99.90;;;;;;4948492;28;92109;-78
2023/12/27 06:48:53;;;;;;;3.15;1.20;;;10.40;99.90;;;;;;4950807;28;92836;-77
2023/12/27 06:51:19;;;;;;;3.53;1.33;;;10.40;99.90;;;;;;4935322;28;93192;-78
2023/12/27 06:53:45;;;;;;;2.78;1.40;;;10.30;99.90;;;;;;4946985;28;94394;-76
2023/12/27 06:56:12;;;;;;;2.50;1.30;;;10.40;99.90;;;;;;4933771;28;95921;-77
2023/12/27 06:58:38;;;;;;;1.63;0.80;;;10.40;99.90;;;;;;4932883;28;93367;-77
2023/12/27 07:01:04;;;;;;;1.58;0.95;;;10.40;99.90;;;;;;4931410;28;92851;-77
2023/12/27 07:03:29;;;;;;;2.13;1.10;;;10.40;99.90;;;;;;4925132;28;95581;-77
2023/12/27 07:05:55;;;;;;;2.28;1.10;;;10.30;99.90;;;;;;4930169;28;93674;-77
2023/12/27 07:08:21;;;;;;;4.57;1.30;;;10.00;99.90;;;;;;4946010;28;93406;-76
2023/12/27 07:10:46;;;;;;;1.73;0.93;;;9.80;99.90;;;;;;4927758;28;92084;-77
2023/12/27 07:13:14;;;;;;;2.05;0.98;;;9.60;99.90;;;;;;4935220;28;96832;-76
2023/12/27 07:15:39;;;;;;;2.05;0.90;;;9.50;99.90;;;;;;4933798;28;94778;-77
2023/12/27 07:18:06;;;;;;;1.13;0.80;;;9.40;99.90;;;;;;4948220;28;94250;-76
2023/12/27 07:20:33;;;;;;;1.88;1.20;;;9.30;99.90;;;;;;4950836;28;92586;-76
2023/12/27 07:24:01;;;;;;;1.55;0.95;;;9.30;99.90;;;;;;4980860;23;94902;-86
2023/12/27 07:27:33;;;;;;;0.85;0.60;;;9.20;99.90;;;;;;4909194;28;92283;-87
2023/12/27 07:31:10;;;;;;;4.65;1.05;;;9.20;99.90;;;;;;4864396;28;92149;-86
2023/12/27 07:34:19;;;;;;;1.60;0.73;;;9.20;99.90;;;;;;4838350;29;92219;-86
2023/12/27 07:37:42;;;;;;;3.30;0.90;;;9.10;99.90;;;;;;4802134;29;93668;-86
2023/12/27 07:41:27;;;;;;;1.70;0.90;;;9.20;99.90;;;;;;4840638;29;92681;-86
2023/12/27 07:44:43;;;;;;;1.92;0.88;;;9.20;99.90;;;;;;4766772;29;92030;-86
2023/12/27 08:14:20;;;;;;;2.78;0.55;;;9.10;99.90;;;;;;4906210;28;96038;-88
2023/12/27 08:24:48;;;;;;;2.65;0.73;;;9.10;99.90;;;;;;4868284;29;92088;-88
2023/12/27 08:28:11;;;;;;;2.92;0.68;;;9.20;99.90;;;;;;4860636;28;94280;-87
2023/12/27 08:35:01;;;;;;;3.03;0.70;;;9.20;99.90;;;;;;4791202;28;92574;-87
2023/12/27 08:38:54;;;;;;;2.67;0.63;;;9.20;99.90;;;;;;4754542;29;93024;-88
2023/12/27 08:49:21;;;;;;;6.22;0.95;;;9.30;99.90;;;;;;4716538;29;92586;-88
2023/12/27 08:56:13;;;;;;;5.13;1.10;;;9.30;99.90;;;;;;4729058;29;93546;-86
2023/12/27 08:59:29;;;;;;;5.25;1.15;;;9.30;99.90;;;;;;4716107;29;92660;-86
2023/12/27 09:02:53;;;;;;;6.97;1.00;;;9.30;99.90;;;;;;4702455;29;93106;-87
2023/12/27 09:05:40;;;;;;;5.20;1.05;;;9.40;99.90;;;;;;4714233;29;91560;-88
2023/12/27 09:12:20;;;;;;;3.97;1.33;;;9.40;99.90;;;;;;5024931;22;92434;-85
2023/12/27 09:38:38;;;;;;;5.47;1.33;;;9.50;99.90;;;;;;5337829;22;92754;-85
2023/12/27 09:41:30;;;;;;;4.80;1.48;;;9.60;99.90;;;;;;4965102;28;92365;-87
2023/12/27 09:44:26;;;;;;;6.38;1.48;;;9.60;99.90;;;;;;4904894;28;92617;-87
2023/12/27 09:57:05;;;;;;;7.88;1.27;;;9.60;99.90;;;;;;4927453;28;92492;-86
2023/12/27 10:03:16;;;;;;;5.20;1.30;;;9.70;99.90;;;;;;4900875;28;92140;-85
2023/12/27 10:06:58;;;;;;;6.18;1.85;;;9.70;99.90;;;;;;4878037;28;94004;-83
2023/12/27 10:12:43;;;;;;;7.07;1.95;;;9.80;99.90;;;;;;5106976;22;93868;-86
2023/12/27 10:15:36;;;;;;;9.48;1.50;;;9.80;99.90;;;;;;4960133;28;92008;-86
2023/12/27 21:14:42;;;;;;;3.55;1.10;;;11.10;92.80;;;;;;5970093;23;94000;31
